My.unforgettable — ZCIZ4 — position and weather

sailwx.info

Track history (hours):
 
Tides and Currents Weather Stations Pressure Air Temp Water Temp Dewpoint Dewpoint Depression Visibility Wind Speed Wind Dir Waves Ship Positions

My.unforgettable

Last reported at 2016-Dec-03 08:29 UTC. Time now 2016-Dec-03 13:48 UTC.
Position N 26°02' W 079°39'.

Length 42 m; draft 1.9 m.

Type: Pleasure craft. MMSI: 319823000.

Date/timePositionNaut miles runAvg speedWind from/ knotsBaromVisibWave heightAir tempDewpointWater temp
2016-Dec-03 08:29N 26°02' W 079°39'7 7.5
2016-Dec-03 07:33N 26°04' W 079°47'8 7.8
2016-Dec-03 06:33N 26°04' W 079°55'8 8.0
2016-Dec-03 05:33N 26°05' W 080°04'3 2.6
2016-Dec-03 04:33N 26°06' W 080°07'0 0.0
2016-Dec-03 03:33N 26°06' W 080°07'0 0.0
2016-Dec-03 02:33N 26°06' W 080°07'0 0.0
2016-Dec-03 01:33N 26°06' W 080°07'0 0.0
2016-Dec-03 00:33N 26°06' W 080°07'0 0.0
2016-Dec-02 23:33N 26°06' W 080°07'0 0.0
2016-Dec-02 22:33N 26°06' W 080°07'0 0.3
2016-Dec-02 21:33N 26°06' W 080°07'2 1.9
2016-Dec-02 20:33N 26°07' W 080°09'2 1.9
2016-Dec-02 19:33N 26°05' W 080°10'0 0.0
2016-Dec-02 18:33N 26°05' W 080°10'0 0.0
2016-Dec-02 17:33N 26°05' W 080°10'0 0.0
2016-Dec-02 16:33N 26°05' W 080°10'0 0.0
2016-Dec-02 15:33N 26°05' W 080°10'0 0.0
2016-Dec-02 14:33N 26°05' W 080°10'0 0.0
2016-Dec-02 13:33N 26°05' W 080°10'0 0.0
2016-Dec-02 12:33N 26°05' W 080°10'0 0.0
2016-Dec-02 11:33N 26°05' W 080°10'0 0.0
2016-Dec-02 10:33N 26°05' W 080°10'0 0.0
2016-Dec-02 09:33N 26°05' W 080°10'0 0.0
2016-Dec-02 08:33N 26°05' W 080°10'0 0.0
2016-Dec-02 07:33N 26°05' W 080°10'0 0.0
2016-Dec-02 06:33N 26°05' W 080°10'0 0.0
2016-Dec-02 05:33N 26°05' W 080°10'0 0.0
2016-Dec-02 04:33N 26°05' W 080°10'0 0.0
2016-Dec-02 03:33N 26°05' W 080°10'0 0.0
2016-Dec-02 02:33N 26°05' W 080°10'0 0.0
2016-Dec-02 01:33N 26°05' W 080°10'0 0.0
2016-Dec-02 00:33N 26°05' W 080°10'0 0.0
2016-Dec-01 23:33N 26°05' W 080°10'0 0.0
2016-Dec-01 22:33N 26°05' W 080°10'0 0.0
2016-Dec-01 21:33N 26°05' W 080°10'0 0.0
2016-Dec-01 20:33N 26°05' W 080°10'0 0.0
2016-Dec-01 19:33N 26°05' W 080°10'0 0.0
2016-Dec-01 18:33N 26°05' W 080°10'0 0.0
2016-Dec-01 17:33N 26°05' W 080°10'0 0.0
2016-Dec-01 16:33N 26°05' W 080°10'0 0.0
2016-Dec-01 15:33N 26°05' W 080°10'0 0.0
2016-Dec-01 14:33N 26°05' W 080°10'0 0.0
2016-Dec-01 13:33N 26°05' W 080°10'0 0.0
2016-Dec-01 12:33N 26°05' W 080°10'0 0.0
2016-Dec-01 11:33N 26°05' W 080°10'0 0.0
2016-Dec-01 10:33N 26°05' W 080°10'0 0.0
2016-Dec-01 09:33N 26°05' W 080°10'0 0.0
2016-Dec-01 08:33N 26°05' W 080°10'0 0.0
2016-Dec-01 07:33N 26°05' W 080°10'0 0.0
2016-Dec-01 06:33N 26°05' W 080°10'0 0.0
2016-Dec-01 05:33N 26°05' W 080°10'0 0.0
2016-Dec-01 04:33N 26°05' W 080°10'0 0.0
2016-Dec-01 03:33N 26°05' W 080°10'0 0.0
2016-Dec-01 02:33N 26°05' W 080°10'0 0.0
2016-Dec-01 01:33N 26°05' W 080°10'0 0.0
2016-Dec-01 00:33N 26°05' W 080°10'0 0.0
2016-Nov-30 23:33N 26°05' W 080°10'0 0.0
2016-Nov-30 22:33N 26°05' W 080°10'0 0.0
2016-Nov-30 21:33N 26°05' W 080°10'0 0.0
2016-Nov-30 20:33N 26°05' W 080°10'0 0.0
2016-Nov-30 19:33N 26°05' W 080°10'0 0.0
2016-Nov-30 18:33N 26°05' W 080°10'0 0.0
2016-Nov-30 17:33N 26°05' W 080°10'0 0.0
2016-Nov-30 16:33N 26°05' W 080°10'0 0.0
2016-Nov-30 15:33N 26°05' W 080°10'0 0.0
2016-Nov-30 14:33N 26°05' W 080°10'0 0.0
2016-Nov-30 13:33N 26°05' W 080°10'0 0.0
2016-Nov-30 12:33N 26°05' W 080°10'0 0.0
2016-Nov-30 11:33N 26°05' W 080°10'0 0.0
2016-Nov-30 10:33N 26°05' W 080°10'0 0.0
2016-Nov-30 09:33N 26°05' W 080°10'0 0.0
2016-Nov-30 08:33N 26°05' W 080°10'0 0.0
2016-Nov-30 07:33N 26°05' W 080°10'0 0.0
2016-Nov-30 06:33N 26°05' W 080°10'0 0.0
2016-Nov-30 05:33N 26°05' W 080°10'0 0.0
2016-Nov-30 04:33N 26°05' W 080°10'0 0.0
2016-Nov-30 03:33N 26°05' W 080°10'0 0.0
2016-Nov-30 02:33N 26°05' W 080°10'0 0.0
2016-Nov-30 01:33N 26°05' W 080°10'0 0.0
2016-Nov-30 00:33N 26°05' W 080°10'0 0.0
2016-Nov-29 23:33N 26°05' W 080°10'0 0.0
2016-Nov-29 22:33N 26°05' W 080°10'0 0.0
2016-Nov-29 21:33N 26°05' W 080°10'0 0.0
2016-Nov-29 20:33N 26°05' W 080°10'0 0.0
2016-Nov-29 19:33N 26°05' W 080°10'0 0.0
2016-Nov-29 18:33N 26°05' W 080°10'0 0.0
2016-Nov-29 17:33N 26°05' W 080°10'0 0.0
2016-Nov-29 16:33N 26°05' W 080°10'0 0.0
2016-Nov-29 15:33N 26°05' W 080°10'0 0.0
2016-Nov-29 14:33N 26°05' W 080°10'0 0.0
2016-Nov-29 13:33N 26°05' W 080°10'0 0.0
2016-Nov-29 12:33N 26°05' W 080°10'0 0.0
2016-Nov-29 11:33N 26°05' W 080°10'0 0.0
2016-Nov-29 10:33N 26°05' W 080°10'0 0.0
2016-Nov-29 09:33N 26°05' W 080°10'0 0.0
2016-Nov-29 08:33N 26°05' W 080°10'0 0.0
2016-Nov-29 07:33N 26°05' W 080°10'0 0.0
2016-Nov-29 06:33N 26°05' W 080°10'0 0.0
2016-Nov-29 05:33N 26°05' W 080°10'0 0.0
2016-Nov-29 04:33N 26°05' W 080°10'0 0.0
2016-Nov-29 03:33N 26°05' W 080°10'0 0.0
2016-Nov-29 02:33N 26°05' W 080°10'0 0.0
2016-Nov-29 01:33N 26°05' W 080°10'0 0.0
2016-Nov-29 00:33N 26°05' W 080°10'0 0.0
2016-Nov-28 23:33N 26°05' W 080°10'0 0.0
2016-Nov-28 22:33N 26°05' W 080°10'0 0.0
2016-Nov-28 21:33N 26°05' W 080°10'0 0.0
2016-Nov-28 20:33N 26°05' W 080°10'0 0.0
2016-Nov-28 19:33N 26°05' W 080°10'0 0.0
2016-Nov-28 18:33N 26°05' W 080°10'0 0.0
2016-Nov-28 17:33N 26°05' W 080°10'0 0.0
2016-Nov-28 16:33N 26°05' W 080°10'0 0.0
2016-Nov-28 15:33N 26°05' W 080°10'0 0.0
2016-Nov-28 14:33N 26°05' W 080°10'0 0.0
2016-Nov-28 13:33N 26°05' W 080°10'0 0.0
2016-Nov-28 12:33N 26°05' W 080°10'0 0.0
2016-Nov-28 11:33N 26°05' W 080°10'0 0.0
2016-Nov-28 10:33N 26°05' W 080°10'0 0.0
2016-Nov-28 09:33N 26°05' W 080°10'0 0.0
2016-Nov-28 08:33N 26°05' W 080°10'0 0.0
2016-Nov-28 07:33N 26°05' W 080°10'0 0.0
2016-Nov-28 06:33N 26°05' W 080°10'0 0.0
2016-Nov-28 05:33N 26°05' W 080°10'0 0.0
2016-Nov-28 04:33N 26°05' W 080°10'0 0.0
2016-Nov-28 03:33N 26°05' W 080°10'0 0.0
2016-Nov-28 02:33N 26°05' W 080°10'0 0.0
2016-Nov-28 01:33N 26°05' W 080°10'0 0.0
2016-Nov-28 00:33N 26°05' W 080°10'0 0.0
2016-Nov-27 23:33N 26°05' W 080°10'0 0.0
2016-Nov-27 22:33N 26°05' W 080°10'0 0.0
2016-Nov-27 21:33N 26°05' W 080°10'0 0.0
2016-Nov-27 20:33N 26°05' W 080°10'0 0.0
2016-Nov-27 19:33N 26°05' W 080°10'0 0.0
2016-Nov-27 18:33N 26°05' W 080°10'0 0.0
2016-Nov-27 17:33N 26°05' W 080°10'0 0.0
2016-Nov-27 16:33N 26°05' W 080°10'0 0.0
2016-Nov-27 15:33N 26°05' W 080°10'0 0.0
2016-Nov-27 14:33N 26°05' W 080°10'0 0.0
2016-Nov-27 13:33N 26°05' W 080°10'0 0.0
2016-Nov-27 12:33N 26°05' W 080°10'0 0.0
2016-Nov-27 11:33N 26°05' W 080°10'0 0.0
2016-Nov-27 10:33N 26°05' W 080°10'0 0.0
2016-Nov-27 09:33N 26°05' W 080°10'0 0.0
2016-Nov-27 08:33N 26°05' W 080°10'0 0.0
2016-Nov-27 07:33N 26°05' W 080°10'0 0.0
2016-Nov-27 06:33N 26°05' W 080°10'0 0.0
2016-Nov-27 05:33N 26°05' W 080°10'0 0.0
2016-Nov-27 04:33N 26°05' W 080°10'0 0.0
2016-Nov-27 03:33N 26°05' W 080°10'0 0.0
2016-Nov-27 02:33N 26°05' W 080°10'0 0.0
2016-Nov-27 01:33N 26°05' W 080°10'0 0.0
2016-Nov-27 00:33N 26°05' W 080°10'0 0.0
2016-Nov-26 23:33N 26°05' W 080°10'0 0.0
2016-Nov-26 22:33N 26°05' W 080°10'0 0.0
2016-Nov-26 21:33N 26°05' W 080°10'0 0.0
2016-Nov-26 20:33N 26°05' W 080°10'0 0.0
2016-Nov-26 19:33N 26°05' W 080°10'0 0.0
2016-Nov-26 18:33N 26°05' W 080°10'0 0.0
2016-Nov-26 17:33N 26°05' W 080°10'0 0.0
2016-Nov-26 16:33N 26°05' W 080°10'0 0.0
2016-Nov-26 15:33N 26°05' W 080°10'0 0.0
2016-Nov-26 14:33N 26°05' W 080°10'0 0.0
2016-Nov-26 13:33N 26°05' W 080°10'0 0.0
2016-Nov-26 12:33N 26°05' W 080°10'0 0.0
2016-Nov-26 11:33N 26°05' W 080°10'0 0.0
2016-Nov-26 10:33N 26°05' W 080°10'0 0.0
2016-Nov-26 09:33N 26°05' W 080°10'0 0.0
2016-Nov-26 08:33N 26°05' W 080°10'0 0.0
2016-Nov-26 07:33N 26°05' W 080°10'0 0.0
2016-Nov-26 06:33N 26°05' W 080°10'0 0.0
2016-Nov-26 05:33N 26°05' W 080°10'0 0.0
2016-Nov-26 04:33N 26°05' W 080°10'0 0.0
2016-Nov-26 03:33N 26°05' W 080°10'0 0.0
2016-Nov-26 02:33N 26°05' W 080°10'0 0.0
2016-Nov-26 01:33N 26°05' W 080°10'0 0.0
2016-Nov-26 00:33N 26°05' W 080°10'0 0.0
2016-Nov-25 23:33N 26°05' W 080°10'0 0.0
2016-Nov-25 22:33N 26°05' W 080°10'0 0.0
2016-Nov-25 21:33N 26°05' W 080°10'0 0.0
2016-Nov-25 20:33N 26°05' W 080°10'0 0.0
2016-Nov-25 19:33N 26°05' W 080°10'0 0.0
2016-Nov-25 18:33N 26°05' W 080°10'0 0.0
2016-Nov-25 17:33N 26°05' W 080°10'0 0.0
2016-Nov-25 16:33N 26°05' W 080°10'0 0.0
2016-Nov-25 15:33N 26°05' W 080°10'0 0.0
2016-Nov-25 14:33N 26°05' W 080°10'0 0.0
2016-Nov-25 13:33N 26°05' W 080°10'0 0.0
2016-Nov-25 12:33N 26°05' W 080°10'0 0.0
2016-Nov-25 11:33N 26°05' W 080°10'0 0.0
2016-Nov-25 10:33N 26°05' W 080°10'0 0.0
2016-Nov-25 09:33N 26°05' W 080°10'0 0.0
2016-Nov-25 08:33N 26°05' W 080°10'0 0.0
2016-Nov-25 07:33N 26°05' W 080°10'0 0.0
2016-Nov-25 06:33N 26°05' W 080°10'0 0.0
2016-Nov-25 05:33N 26°05' W 080°10'0 0.0
2016-Nov-25 04:33N 26°05' W 080°10'0 0.0
2016-Nov-25 03:33N 26°05' W 080°10'0 0.0
2016-Nov-25 02:33N 26°05' W 080°10'0 0.0
2016-Nov-25 01:33N 26°05' W 080°10'0 0.0
2016-Nov-25 00:33N 26°05' W 080°10'0 0.0
2016-Nov-24 23:33N 26°05' W 080°10'0 0.0
2016-Nov-24 22:33N 26°05' W 080°10'0 0.0
2016-Nov-24 21:33N 26°05' W 080°10'0 0.0
2016-Nov-24 20:33N 26°05' W 080°10'0 0.0
2016-Nov-24 19:33N 26°05' W 080°10'0 0.0
2016-Nov-24 18:33N 26°05' W 080°10'0 0.0
2016-Nov-24 17:33N 26°05' W 080°10'0 0.0
2016-Nov-24 16:33N 26°05' W 080°10'0 0.0
2016-Nov-24 15:33N 26°05' W 080°10'0 0.0
2016-Nov-24 14:33N 26°05' W 080°10'0 0.0
2016-Nov-24 13:33N 26°05' W 080°10'0 0.0
2016-Nov-24 12:33N 26°05' W 080°10'0 0.0
2016-Nov-24 11:33N 26°05' W 080°10'0 0.0
2016-Nov-24 10:33N 26°05' W 080°10'0 0.0
2016-Nov-24 09:33N 26°05' W 080°10'0 0.0
2016-Nov-24 08:33N 26°05' W 080°10'0 0.0
2016-Nov-24 07:33N 26°05' W 080°10'0 0.0
2016-Nov-24 06:33N 26°05' W 080°10'0 0.0
2016-Nov-24 05:33N 26°05' W 080°10'0 0.0
2016-Nov-24 04:33N 26°05' W 080°10'0 0.0
2016-Nov-24 03:33N 26°05' W 080°10'0 0.0
2016-Nov-24 02:33N 26°05' W 080°10'0 0.0
2016-Nov-24 01:33N 26°05' W 080°10'0 0.0
2016-Nov-24 00:33N 26°05' W 080°10'0 0.0
2016-Nov-23 23:33N 26°05' W 080°10'0 0.0
2016-Nov-23 22:33N 26°05' W 080°10'0 0.0
2016-Nov-23 21:33N 26°05' W 080°10'0 0.0
2016-Nov-23 20:33N 26°05' W 080°10'0 0.0
2016-Nov-23 19:33N 26°05' W 080°10'0 0.0
2016-Nov-23 18:33N 26°05' W 080°10'0 0.0
2016-Nov-23 17:33N 26°05' W 080°10'0 0.0
2016-Nov-23 16:33N 26°05' W 080°10'0 0.0
2016-Nov-23 15:33N 26°05' W 080°10'0 0.0
2016-Nov-23 14:33N 26°05' W 080°10'0 0.0
2016-Nov-23 13:33N 26°05' W 080°10'0 0.0
2016-Nov-23 12:33N 26°05' W 080°10'0 0.0
2016-Nov-23 11:33N 26°05' W 080°10'0 0.0
2016-Nov-23 10:33N 26°05' W 080°10'0 0.0
2016-Nov-23 09:33N 26°05' W 080°10'0 0.0
2016-Nov-23 08:33N 26°05' W 080°10'  
Track history (hours):
 
Tides and Currents Weather Stations Pressure Air Temp Water Temp Dewpoint Dewpoint Depression Visibility Wind Speed Wind Dir Waves Ship Positions

My.unforgettable

Last reported at 2016-Dec-03 08:29 UTC. Time now 2016-Dec-03 13:48 UTC.
Position N 26°02' W 079°39'.

Length 42 m; draft 1.9 m.

Type: Pleasure craft. MMSI: 319823000.

Date/timePositionNaut miles runAvg speedWind from/ knotsBaromVisibWave heightAir tempDewpointWater temp
2016-Dec-03 08:29N 26°02' W 079°39'7 7.5
2016-Dec-03 07:33N 26°04' W 079°47'8 7.8
2016-Dec-03 06:33N 26°04' W 079°55'8 8.0
2016-Dec-03 05:33N 26°05' W 080°04'3 2.6
2016-Dec-03 04:33N 26°06' W 080°07'0 0.0
2016-Dec-03 03:33N 26°06' W 080°07'0 0.0
2016-Dec-03 02:33N 26°06' W 080°07'0 0.0
2016-Dec-03 01:33N 26°06' W 080°07'0 0.0
2016-Dec-03 00:33N 26°06' W 080°07'0 0.0
2016-Dec-02 23:33N 26°06' W 080°07'0 0.0
2016-Dec-02 22:33N 26°06' W 080°07'0 0.3
2016-Dec-02 21:33N 26°06' W 080°07'2 1.9
2016-Dec-02 20:33N 26°07' W 080°09'2 1.9
2016-Dec-02 19:33N 26°05' W 080°10'0 0.0
2016-Dec-02 18:33N 26°05' W 080°10'0 0.0
2016-Dec-02 17:33N 26°05' W 080°10'0 0.0
2016-Dec-02 16:33N 26°05' W 080°10'0 0.0
2016-Dec-02 15:33N 26°05' W 080°10'0 0.0
2016-Dec-02 14:33N 26°05' W 080°10'0 0.0
2016-Dec-02 13:33N 26°05' W 080°10'0 0.0
2016-Dec-02 12:33N 26°05' W 080°10'0 0.0
2016-Dec-02 11:33N 26°05' W 080°10'0 0.0
2016-Dec-02 10:33N 26°05' W 080°10'0 0.0
2016-Dec-02 09:33N 26°05' W 080°10'0 0.0
2016-Dec-02 08:33N 26°05' W 080°10'0 0.0
2016-Dec-02 07:33N 26°05' W 080°10'0 0.0
2016-Dec-02 06:33N 26°05' W 080°10'0 0.0
2016-Dec-02 05:33N 26°05' W 080°10'0 0.0
2016-Dec-02 04:33N 26°05' W 080°10'0 0.0
2016-Dec-02 03:33N 26°05' W 080°10'0 0.0
2016-Dec-02 02:33N 26°05' W 080°10'0 0.0
2016-Dec-02 01:33N 26°05' W 080°10'0 0.0
2016-Dec-02 00:33N 26°05' W 080°10'0 0.0
2016-Dec-01 23:33N 26°05' W 080°10'0 0.0
2016-Dec-01 22:33N 26°05' W 080°10'0 0.0
2016-Dec-01 21:33N 26°05' W 080°10'0 0.0
2016-Dec-01 20:33N 26°05' W 080°10'0 0.0
2016-Dec-01 19:33N 26°05' W 080°10'0 0.0
2016-Dec-01 18:33N 26°05' W 080°10'0 0.0
2016-Dec-01 17:33N 26°05' W 080°10'0 0.0
2016-Dec-01 16:33N 26°05' W 080°10'0 0.0
2016-Dec-01 15:33N 26°05' W 080°10'0 0.0
2016-Dec-01 14:33N 26°05' W 080°10'0 0.0
2016-Dec-01 13:33N 26°05' W 080°10'0 0.0
2016-Dec-01 12:33N 26°05' W 080°10'0 0.0
2016-Dec-01 11:33N 26°05' W 080°10'0 0.0
2016-Dec-01 10:33N 26°05' W 080°10'0 0.0
2016-Dec-01 09:33N 26°05' W 080°10'0 0.0
2016-Dec-01 08:33N 26°05' W 080°10'0 0.0
2016-Dec-01 07:33N 26°05' W 080°10'0 0.0
2016-Dec-01 06:33N 26°05' W 080°10'0 0.0
2016-Dec-01 05:33N 26°05' W 080°10'0 0.0
2016-Dec-01 04:33N 26°05' W 080°10'0 0.0
2016-Dec-01 03:33N 26°05' W 080°10'0 0.0
2016-Dec-01 02:33N 26°05' W 080°10'0 0.0
2016-Dec-01 01:33N 26°05' W 080°10'0 0.0
2016-Dec-01 00:33N 26°05' W 080°10'0 0.0
2016-Nov-30 23:33N 26°05' W 080°10'0 0.0
2016-Nov-30 22:33N 26°05' W 080°10'0 0.0
2016-Nov-30 21:33N 26°05' W 080°10'0 0.0
2016-Nov-30 20:33N 26°05' W 080°10'0 0.0
2016-Nov-30 19:33N 26°05' W 080°10'0 0.0
2016-Nov-30 18:33N 26°05' W 080°10'0 0.0
2016-Nov-30 17:33N 26°05' W 080°10'0 0.0
2016-Nov-30 16:33N 26°05' W 080°10'0 0.0
2016-Nov-30 15:33N 26°05' W 080°10'0 0.0
2016-Nov-30 14:33N 26°05' W 080°10'0 0.0
2016-Nov-30 13:33N 26°05' W 080°10'0 0.0
2016-Nov-30 12:33N 26°05' W 080°10'0 0.0
2016-Nov-30 11:33N 26°05' W 080°10'0 0.0
2016-Nov-30 10:33N 26°05' W 080°10'0 0.0
2016-Nov-30 09:33N 26°05' W 080°10'0 0.0
2016-Nov-30 08:33N 26°05' W 080°10'0 0.0
2016-Nov-30 07:33N 26°05' W 080°10'0 0.0
2016-Nov-30 06:33N 26°05' W 080°10'0 0.0
2016-Nov-30 05:33N 26°05' W 080°10'0 0.0
2016-Nov-30 04:33N 26°05' W 080°10'0 0.0
2016-Nov-30 03:33N 26°05' W 080°10'0 0.0
2016-Nov-30 02:33N 26°05' W 080°10'0 0.0
2016-Nov-30 01:33N 26°05' W 080°10'0 0.0
2016-Nov-30 00:33N 26°05' W 080°10'0 0.0
2016-Nov-29 23:33N 26°05' W 080°10'0 0.0
2016-Nov-29 22:33N 26°05' W 080°10'0 0.0
2016-Nov-29 21:33N 26°05' W 080°10'0 0.0
2016-Nov-29 20:33N 26°05' W 080°10'0 0.0
2016-Nov-29 19:33N 26°05' W 080°10'0 0.0
2016-Nov-29 18:33N 26°05' W 080°10'0 0.0
2016-Nov-29 17:33N 26°05' W 080°10'0 0.0
2016-Nov-29 16:33N 26°05' W 080°10'0 0.0
2016-Nov-29 15:33N 26°05' W 080°10'0 0.0
2016-Nov-29 14:33N 26°05' W 080°10'0 0.0
2016-Nov-29 13:33N 26°05' W 080°10'0 0.0
2016-Nov-29 12:33N 26°05' W 080°10'0 0.0
2016-Nov-29 11:33N 26°05' W 080°10'0 0.0
2016-Nov-29 10:33N 26°05' W 080°10'0 0.0
2016-Nov-29 09:33N 26°05' W 080°10'0 0.0
2016-Nov-29 08:33N 26°05' W 080°10'0 0.0
2016-Nov-29 07:33N 26°05' W 080°10'0 0.0
2016-Nov-29 06:33N 26°05' W 080°10'0 0.0
2016-Nov-29 05:33N 26°05' W 080°10'0 0.0
2016-Nov-29 04:33N 26°05' W 080°10'0 0.0
2016-Nov-29 03:33N 26°05' W 080°10'0 0.0
2016-Nov-29 02:33N 26°05' W 080°10'0 0.0
2016-Nov-29 01:33N 26°05' W 080°10'0 0.0
2016-Nov-29 00:33N 26°05' W 080°10'0 0.0
2016-Nov-28 23:33N 26°05' W 080°10'0 0.0
2016-Nov-28 22:33N 26°05' W 080°10'0 0.0
2016-Nov-28 21:33N 26°05' W 080°10'0 0.0
2016-Nov-28 20:33N 26°05' W 080°10'0 0.0
2016-Nov-28 19:33N 26°05' W 080°10'0 0.0
2016-Nov-28 18:33N 26°05' W 080°10'0 0.0
2016-Nov-28 17:33N 26°05' W 080°10'0 0.0
2016-Nov-28 16:33N 26°05' W 080°10'0 0.0
2016-Nov-28 15:33N 26°05' W 080°10'0 0.0
2016-Nov-28 14:33N 26°05' W 080°10'0 0.0
2016-Nov-28 13:33N 26°05' W 080°10'0 0.0
2016-Nov-28 12:33N 26°05' W 080°10'0 0.0
2016-Nov-28 11:33N 26°05' W 080°10'0 0.0
2016-Nov-28 10:33N 26°05' W 080°10'0 0.0
2016-Nov-28 09:33N 26°05' W 080°10'0 0.0
2016-Nov-28 08:33N 26°05' W 080°10'0 0.0
2016-Nov-28 07:33N 26°05' W 080°10'0 0.0
2016-Nov-28 06:33N 26°05' W 080°10'0 0.0
2016-Nov-28 05:33N 26°05' W 080°10'0 0.0
2016-Nov-28 04:33N 26°05' W 080°10'0 0.0
2016-Nov-28 03:33N 26°05' W 080°10'0 0.0
2016-Nov-28 02:33N 26°05' W 080°10'0 0.0
2016-Nov-28 01:33N 26°05' W 080°10'0 0.0
2016-Nov-28 00:33N 26°05' W 080°10'0 0.0
2016-Nov-27 23:33N 26°05' W 080°10'0 0.0
2016-Nov-27 22:33N 26°05' W 080°10'0 0.0
2016-Nov-27 21:33N 26°05' W 080°10'0 0.0
2016-Nov-27 20:33N 26°05' W 080°10'0 0.0
2016-Nov-27 19:33N 26°05' W 080°10'0 0.0
2016-Nov-27 18:33N 26°05' W 080°10'0 0.0
2016-Nov-27 17:33N 26°05' W 080°10'0 0.0
2016-Nov-27 16:33N 26°05' W 080°10'0 0.0
2016-Nov-27 15:33N 26°05' W 080°10'0 0.0
2016-Nov-27 14:33N 26°05' W 080°10'0 0.0
2016-Nov-27 13:33N 26°05' W 080°10'0 0.0
2016-Nov-27 12:33N 26°05' W 080°10'0 0.0
2016-Nov-27 11:33N 26°05' W 080°10'0 0.0
2016-Nov-27 10:33N 26°05' W 080°10'0 0.0
2016-Nov-27 09:33N 26°05' W 080°10'0 0.0
2016-Nov-27 08:33N 26°05' W 080°10'0 0.0
2016-Nov-27 07:33N 26°05' W 080°10'0 0.0
2016-Nov-27 06:33N 26°05' W 080°10'0 0.0
2016-Nov-27 05:33N 26°05' W 080°10'0 0.0
2016-Nov-27 04:33N 26°05' W 080°10'0 0.0
2016-Nov-27 03:33N 26°05' W 080°10'0 0.0
2016-Nov-27 02:33N 26°05' W 080°10'0 0.0
2016-Nov-27 01:33N 26°05' W 080°10'0 0.0
2016-Nov-27 00:33N 26°05' W 080°10'0 0.0
2016-Nov-26 23:33N 26°05' W 080°10'0 0.0
2016-Nov-26 22:33N 26°05' W 080°10'0 0.0
2016-Nov-26 21:33N 26°05' W 080°10'0 0.0
2016-Nov-26 20:33N 26°05' W 080°10'0 0.0
2016-Nov-26 19:33N 26°05' W 080°10'0 0.0
2016-Nov-26 18:33N 26°05' W 080°10'0 0.0
2016-Nov-26 17:33N 26°05' W 080°10'0 0.0
2016-Nov-26 16:33N 26°05' W 080°10'0 0.0
2016-Nov-26 15:33N 26°05' W 080°10'0 0.0
2016-Nov-26 14:33N 26°05' W 080°10'0 0.0
2016-Nov-26 13:33N 26°05' W 080°10'0 0.0
2016-Nov-26 12:33N 26°05' W 080°10'0 0.0
2016-Nov-26 11:33N 26°05' W 080°10'0 0.0
2016-Nov-26 10:33N 26°05' W 080°10'0 0.0
2016-Nov-26 09:33N 26°05' W 080°10'0 0.0
2016-Nov-26 08:33N 26°05' W 080°10'0 0.0
2016-Nov-26 07:33N 26°05' W 080°10'0 0.0
2016-Nov-26 06:33N 26°05' W 080°10'0 0.0
2016-Nov-26 05:33N 26°05' W 080°10'0 0.0
2016-Nov-26 04:33N 26°05' W 080°10'0 0.0
2016-Nov-26 03:33N 26°05' W 080°10'0 0.0
2016-Nov-26 02:33N 26°05' W 080°10'0 0.0
2016-Nov-26 01:33N 26°05' W 080°10'0 0.0
2016-Nov-26 00:33N 26°05' W 080°10'0 0.0
2016-Nov-25 23:33N 26°05' W 080°10'0 0.0
2016-Nov-25 22:33N 26°05' W 080°10'0 0.0
2016-Nov-25 21:33N 26°05' W 080°10'0 0.0
2016-Nov-25 20:33N 26°05' W 080°10'0 0.0
2016-Nov-25 19:33N 26°05' W 080°10'0 0.0
2016-Nov-25 18:33N 26°05' W 080°10'0 0.0
2016-Nov-25 17:33N 26°05' W 080°10'0 0.0
2016-Nov-25 16:33N 26°05' W 080°10'0 0.0
2016-Nov-25 15:33N 26°05' W 080°10'0 0.0
2016-Nov-25 14:33N 26°05' W 080°10'0 0.0
2016-Nov-25 13:33N 26°05' W 080°10'0 0.0
2016-Nov-25 12:33N 26°05' W 080°10'0 0.0
2016-Nov-25 11:33N 26°05' W 080°10'0 0.0
2016-Nov-25 10:33N 26°05' W 080°10'0 0.0
2016-Nov-25 09:33N 26°05' W 080°10'0 0.0
2016-Nov-25 08:33N 26°05' W 080°10'0 0.0
2016-Nov-25 07:33N 26°05' W 080°10'0 0.0
2016-Nov-25 06:33N 26°05' W 080°10'0 0.0
2016-Nov-25 05:33N 26°05' W 080°10'0 0.0
2016-Nov-25 04:33N 26°05' W 080°10'0 0.0
2016-Nov-25 03:33N 26°05' W 080°10'0 0.0
2016-Nov-25 02:33N 26°05' W 080°10'0 0.0
2016-Nov-25 01:33N 26°05' W 080°10'0 0.0
2016-Nov-25 00:33N 26°05' W 080°10'0 0.0
2016-Nov-24 23:33N 26°05' W 080°10'0 0.0
2016-Nov-24 22:33N 26°05' W 080°10'0 0.0
2016-Nov-24 21:33N 26°05' W 080°10'0 0.0
2016-Nov-24 20:33N 26°05' W 080°10'0 0.0
2016-Nov-24 19:33N 26°05' W 080°10'0 0.0
2016-Nov-24 18:33N 26°05' W 080°10'0 0.0
2016-Nov-24 17:33N 26°05' W 080°10'0 0.0
2016-Nov-24 16:33N 26°05' W 080°10'0 0.0
2016-Nov-24 15:33N 26°05' W 080°10'0 0.0
2016-Nov-24 14:33N 26°05' W 080°10'0 0.0
2016-Nov-24 13:33N 26°05' W 080°10'0 0.0
2016-Nov-24 12:33N 26°05' W 080°10'0 0.0
2016-Nov-24 11:33N 26°05' W 080°10'0 0.0
2016-Nov-24 10:33N 26°05' W 080°10'0 0.0
2016-Nov-24 09:33N 26°05' W 080°10'0 0.0
2016-Nov-24 08:33N 26°05' W 080°10'0 0.0
2016-Nov-24 07:33N 26°05' W 080°10'0 0.0
2016-Nov-24 06:33N 26°05' W 080°10'0 0.0
2016-Nov-24 05:33N 26°05' W 080°10'0 0.0
2016-Nov-24 04:33N 26°05' W 080°10'0 0.0
2016-Nov-24 03:33N 26°05' W 080°10'0 0.0
2016-Nov-24 02:33N 26°05' W 080°10'0 0.0
2016-Nov-24 01:33N 26°05' W 080°10'0 0.0
2016-Nov-24 00:33N 26°05' W 080°10'0 0.0
2016-Nov-23 23:33N 26°05' W 080°10'0 0.0
2016-Nov-23 22:33N 26°05' W 080°10'0 0.0
2016-Nov-23 21:33N 26°05' W 080°10'0 0.0
2016-Nov-23 20:33N 26°05' W 080°10'0 0.0
2016-Nov-23 19:33N 26°05' W 080°10'0 0.0
2016-Nov-23 18:33N 26°05' W 080°10'0 0.0
2016-Nov-23 17:33N 26°05' W 080°10'0 0.0
2016-Nov-23 16:33N 26°05' W 080°10'0 0.0
2016-Nov-23 15:33N 26°05' W 080°10'0 0.0
2016-Nov-23 14:33N 26°05' W 080°10'0 0.0
2016-Nov-23 13:33N 26°05' W 080°10'0 0.0
2016-Nov-23 12:33N 26°05' W 080°10'0 0.0
2016-Nov-23 11:33N 26°05' W 080°10'0 0.0
2016-Nov-23 10:33N 26°05' W 080°10'0 0.0
2016-Nov-23 09:33N 26°05' W 080°10'0 0.0
2016-Nov-23 08:33N 26°05' W 080°10'  

Dump ship's entire track history